Pagina principală
METAR-TAF:

METAR-TAF

Aeroporturi :

Caracas, Venezuela

Latitudine: 10-36N, longitudine: 066-59W, elevație: 43 m

Observații meteo curente

Raportul a fost făcut în urmă cu 59 de minute, la 15:03 UTC
Vânt 8 kt de la Vest
Temperatură 30°C
Umiditate 62%
Presiune 1016 hPa

METAR: SVMI 231503Z AUTO 27008KT NCD 30/22 Q1016

Ora: 12:02 (16:02 UTC)

Prognoză

Raportul a fost făcut în urmă cu 6 ore și 2 de minute, la 10:00 UTC
Prognoză valabilă de la 23 ora 12 UTC la 24 ora 12 UTC
Vânt kt de la Nord
Vizibilitate de 10 km sau mai mult
Nori împrăștiați la o înălțime de 1600 picior
Temporar
de la 23 ora 12 UTC la 23 ora 16 UTC
Vânt 6 kt de la Est/Nord-est
Vizibilitate: 9000 m
Nori împrăștiați la o înălțime de 1300 picior, Cumulonimbus.
Nori fragmentați la o înălțime de 8000 picior
oraj în apropiere, burniță,

TAF: SVMI 231000Z 2312/2412 00000KT 9999 SCT016 TX34/2218Z TN22/2308Z TEMPO 2312/2316 07006KT 9000 VCTSDZ SCT013CB BKN080

Observații și prognoze meteo pentru peste 4.000 de aeroporturi (rapoarte METAR și TAF).

Stațiile disponibile sunt reprezentate pe hartă prin puncte galbene și roșii.

Țineți indicatorul mouse-ului pe punctul dorit pentru a vedea denumirea stației.

Apoi, faceți clic pentru a vedea observațiile și prognozele meteorologice.

Pentru a schimba harta: Pentru mărire, faceți clic pe butoanele verzi cu cruce neagră; pentru micșorare, pe butonul verde cu o liniuță; pentru hărți învecinate, pe săgețile verzi.


METAR-TAF: